createdAt,value
2023-02-13T00:04:29.422Z,77.63
2023-02-13T00:09:33.507Z,77.14
2023-02-13T00:14:36.779Z,76.78
2023-02-13T00:19:39.884Z,76.59
2023-02-13T00:24:44.062Z,76.74
2023-02-13T00:29:46.874Z,76.34
2023-02-13T00:34:49.674Z,76.25
2023-02-13T00:39:53.973Z,76.35
2023-02-13T00:44:56.759Z,76.61
2023-02-13T00:49:59.517Z,76.35
2023-02-13T00:55:03.636Z,76.38
2023-02-13T01:00:07.667Z,76.08
2023-02-13T01:05:10.534Z,76.07
2023-02-13T01:10:17.472Z,76.14
2023-02-13T01:15:20.566Z,76.32
2023-02-13T01:20:25.148Z,76.09
2023-02-13T01:25:29.598Z,76.14
2023-02-13T01:30:34.075Z,76.07
2023-02-13T01:35:36.819Z,75.84
2023-02-13T01:40:47.521Z,75.48
2023-02-13T01:45:54.055Z,75.32
2023-02-13T01:51:00.864Z,75.18
2023-02-13T01:56:10.795Z,75.18
2023-02-13T02:01:14.035Z,75.04
2023-02-13T02:06:22.775Z,75.01
2023-02-13T02:11:33.895Z,75.06
2023-02-13T02:16:37.147Z,74.75
2023-02-13T02:22:19.740Z,74.62
2023-02-13T02:27:55.664Z,75.00
2023-02-13T02:33:24.740Z,75.10
2023-02-13T02:38:41.945Z,74.86
2023-02-13T02:43:56.510Z,74.54
2023-02-13T02:49:23.858Z,74.26
2023-02-13T02:54:52.008Z,74.28
2023-02-13T03:00:14.595Z,74.27
2023-02-13T03:05:41.675Z,74.30
2023-02-13T03:11:02.208Z,74.55
2023-02-13T03:16:23.353Z,74.51
2023-02-13T03:22:02.438Z,74.71
2023-02-13T03:27:11.618Z,75.31
2023-02-13T03:32:25.005Z,75.44
2023-02-13T03:37:52.649Z,75.39
2023-02-13T03:42:59.442Z,75.61
2023-02-13T03:48:27.173Z,75.51
2023-02-13T03:53:35.905Z,75.79
2023-02-13T03:59:01.613Z,76.05
2023-02-13T04:04:11.080Z,76.03
2023-02-13T04:09:17.053Z,76.06
2023-02-13T04:14:23.366Z,76.19
2023-02-13T04:19:27.650Z,76.40
2023-02-13T04:24:32.069Z,76.07
2023-02-13T04:29:35.020Z,75.72
2023-02-13T04:34:37.882Z,75.99
2023-02-13T04:39:42.058Z,75.52
2023-02-13T04:44:44.872Z,75.32
2023-02-13T04:49:47.729Z,75.19
2023-02-13T04:54:52.122Z,74.87
2023-02-13T04:59:54.910Z,74.85
2023-02-13T05:04:57.760Z,74.66
2023-02-13T05:10:01.982Z,74.31
2023-02-13T05:15:05.254Z,74.29
2023-02-13T05:20:08.946Z,74.16
2023-02-13T05:25:13.177Z,73.85
2023-02-13T05:30:16.608Z,73.82
2023-02-13T05:35:19.727Z,73.80
2023-02-13T05:40:23.823Z,73.71
2023-02-13T05:45:26.596Z,73.83
2023-02-13T05:50:29.411Z,73.77
2023-02-13T05:55:33.685Z,73.83
2023-02-13T06:00:36.409Z,73.75
2023-02-13T06:05:39.135Z,73.77
2023-02-13T06:10:45.162Z,73.80
2023-02-13T06:15:48.248Z,73.70
2023-02-13T06:20:51.178Z,74.12
2023-02-13T06:25:55.299Z,74.05
2023-02-13T06:30:58.454Z,73.94
2023-02-13T06:36:01.771Z,74.13
2023-02-13T06:41:07.011Z,74.10
2023-02-13T06:46:10.071Z,74.66
2023-02-13T06:51:13.015Z,74.63
2023-02-13T06:56:17.171Z,74.84
2023-02-13T07:01:20.151Z,74.88
2023-02-13T07:06:23.021Z,74.91
2023-02-13T07:11:27.194Z,74.88
2023-02-13T07:16:30.094Z,75.10
2023-02-13T07:21:32.913Z,75.93
2023-02-13T07:26:37.075Z,74.69
2023-02-13T07:31:40.341Z,74.32
2023-02-13T07:36:43.099Z,73.67
2023-02-13T07:41:47.215Z,73.66
2023-02-13T07:46:52.304Z,73.04
2023-02-13T07:51:57.526Z,72.63
2023-02-13T07:57:01.663Z,72.45
2023-02-13T08:02:04.431Z,72.93
2023-02-13T08:07:07.202Z,73.40
2023-02-13T08:12:11.563Z,73.49
2023-02-13T08:17:14.511Z,73.67
2023-02-13T08:22:17.320Z,73.70
2023-02-13T08:27:21.785Z,73.76
2023-02-13T08:32:25.136Z,73.86
2023-02-13T08:37:27.887Z,74.03
2023-02-13T08:42:31.915Z,73.82
2023-02-13T08:47:34.635Z,73.63
2023-02-13T08:52:37.302Z,73.08
2023-02-13T08:57:41.444Z,72.79
2023-02-13T09:02:44.213Z,72.35
2023-02-13T09:07:47.072Z,72.55
2023-02-13T09:12:54.915Z,72.45
2023-02-13T09:17:57.675Z,71.73
2023-02-13T09:23:00.409Z,71.98
2023-02-13T09:28:04.560Z,71.07
2023-02-13T09:33:11.949Z,71.17
2023-02-13T09:38:14.734Z,70.75
2023-02-13T09:43:28.144Z,70.49
2023-02-13T09:48:34.489Z,69.81
2023-02-13T09:53:38.322Z,69.43
2023-02-13T09:58:46.953Z,68.81
2023-02-13T10:03:59.699Z,68.86
2023-02-13T10:09:06.988Z,69.29
2023-02-13T10:14:17.674Z,68.99
2023-02-13T10:19:34.193Z,68.34
2023-02-13T10:24:43.040Z,68.10
2023-02-13T10:30:09.547Z,67.50
2023-02-13T10:35:21.905Z,67.36
2023-02-13T10:40:29.955Z,66.92
2023-02-13T10:46:04.257Z,66.83
2023-02-13T10:51:14.093Z,65.69
2023-02-13T10:56:26.175Z,65.80
2023-02-13T11:01:36.827Z,66.41
2023-02-13T11:06:43.987Z,66.34
2023-02-13T11:11:46.947Z,65.11
2023-02-13T11:16:57.897Z,63.97
2023-02-13T11:22:04.686Z,64.05
2023-02-13T11:27:12.850Z,62.07
2023-02-13T11:32:24.140Z,62.08
2023-02-13T11:37:29.911Z,62.93
2023-02-13T11:42:35.641Z,63.30
2023-02-13T11:47:42.216Z,63.82
2023-02-13T11:52:51.640Z,63.58
2023-02-13T11:57:58.606Z,62.09
2023-02-13T12:03:02.836Z,61.11
2023-02-13T12:08:10.191Z,60.95
2023-02-13T12:13:18.100Z,60.50
2023-02-13T12:18:30.984Z,60.96
2023-02-13T12:23:44.406Z,60.17
2023-02-13T12:28:57.725Z,59.65
2023-02-13T12:34:35.094Z,57.98
2023-02-13T12:39:42.196Z,58.61
2023-02-13T12:45:03.500Z,59.80
2023-02-13T12:50:30.860Z,59.72
2023-02-13T12:55:47.168Z,58.32
2023-02-13T13:01:01.031Z,55.59
2023-02-13T13:06:19.520Z,49.67
2023-02-13T13:11:47.922Z,47.37
2023-02-13T13:17:00.028Z,49.14
2023-02-13T13:22:08.549Z,46.22
2023-02-13T13:27:20.171Z,44.44
2023-02-13T13:32:24.059Z,44.35
2023-02-13T13:37:34.864Z,43.59
2023-02-13T13:42:43.211Z,44.86
2023-02-13T13:48:01.486Z,44.77
2023-02-13T13:53:12.149Z,46.02
2023-02-13T13:58:23.409Z,46.08
2023-02-13T14:03:38.967Z,46.75
2023-02-13T14:09:23.631Z,47.06
2023-02-13T14:14:55.134Z,48.00
2023-02-13T14:19:58.254Z,48.11
2023-02-13T14:25:03.683Z,47.88
2023-02-13T14:30:27.862Z,47.37
2023-02-13T14:35:33.649Z,47.73
2023-02-13T14:40:54.497Z,48.15
2023-02-13T14:46:05.121Z,47.70
2023-02-13T14:51:16.090Z,48.29
2023-02-13T14:56:22.533Z,48.82
2023-02-13T15:01:31.749Z,49.10
2023-02-13T15:06:39.454Z,50.31
2023-02-13T15:11:44.191Z,50.11
2023-02-13T15:16:52.498Z,49.66
2023-02-13T15:21:59.083Z,50.26
2023-02-13T15:27:04.341Z,51.04
2023-02-13T15:32:21.089Z,50.87
2023-02-13T15:37:25.948Z,51.04
2023-02-13T15:42:28.738Z,52.09
2023-02-13T15:47:34.553Z,52.98
2023-02-13T15:52:40.049Z,54.44
2023-02-13T15:57:42.890Z,56.25
2023-02-13T16:02:48.756Z,57.30
2023-02-13T16:07:53.049Z,58.55
2023-02-13T16:12:58.707Z,60.08
2023-02-13T16:18:06.238Z,61.11
2023-02-13T16:23:17.656Z,62.72
2023-02-13T16:28:22.913Z,63.27
2023-02-13T16:33:29.889Z,64.12
2023-02-13T16:38:36.444Z,64.64
2023-02-13T16:43:43.079Z,65.67
2023-02-13T16:48:49.652Z,65.90
2023-02-13T16:53:58.012Z,66.61
2023-02-13T16:59:21.743Z,66.78
2023-02-13T17:04:26.526Z,66.95
2023-02-13T17:09:29.828Z,67.06
2023-02-13T17:14:32.536Z,67.43
2023-02-13T17:19:36.698Z,67.80
2023-02-13T17:24:39.499Z,68.01
2023-02-13T17:29:42.280Z,68.10
2023-02-13T17:34:47.321Z,68.27
2023-02-13T17:39:50.580Z,68.42
2023-02-13T17:44:54.382Z,68.74
2023-02-13T17:50:08.552Z,68.82
2023-02-13T17:55:18.463Z,69.21
2023-02-13T18:00:22.339Z,69.39
2023-02-13T18:05:27.661Z,69.24
2023-02-13T18:10:32.972Z,69.65
2023-02-13T18:15:39.558Z,70.04
2023-02-13T18:20:44.170Z,69.93
2023-02-13T18:25:46.857Z,69.86
2023-02-13T18:30:49.713Z,70.01
2023-02-13T18:35:59.622Z,70.30
2023-02-13T18:41:03.679Z,70.61
2023-02-13T18:46:06.483Z,70.86
2023-02-13T18:51:10.672Z,71.11
2023-02-13T18:56:14.216Z,71.04
2023-02-13T19:01:19.474Z,71.11
2023-02-13T19:06:25.116Z,72.24
2023-02-13T19:11:28.664Z,72.08
2023-02-13T19:16:33.021Z,71.95
2023-02-13T19:21:38.973Z,71.99
2023-02-13T19:26:42.005Z,72.44
2023-02-13T19:31:45.350Z,72.29
2023-02-13T19:36:49.528Z,72.23
2023-02-13T19:41:52.232Z,72.53
2023-02-13T19:46:54.979Z,72.53
2023-02-13T19:51:59.098Z,72.75
2023-02-13T19:57:05.562Z,72.98
2023-02-13T20:02:14.414Z,72.80
2023-02-13T20:07:18.492Z,73.07
2023-02-13T20:12:21.248Z,73.17
2023-02-13T20:17:24.025Z,72.91
2023-02-13T20:22:28.127Z,72.79
2023-02-13T20:27:31.157Z,73.03
2023-02-13T20:32:34.121Z,73.24
2023-02-13T20:37:38.284Z,73.28
2023-02-13T20:42:41.046Z,73.21
2023-02-13T20:47:43.803Z,73.07
2023-02-13T20:52:47.884Z,73.28
2023-02-13T20:57:50.660Z,73.20
2023-02-13T21:02:53.431Z,73.48
2023-02-13T21:07:57.667Z,73.51
2023-02-13T21:13:00.368Z,73.67
2023-02-13T21:18:03.844Z,73.83
2023-02-13T21:23:07.909Z,73.89
2023-02-13T21:28:10.644Z,74.08
2023-02-13T21:33:13.371Z,74.12
2023-02-13T21:38:19.048Z,74.16
2023-02-13T21:43:23.126Z,74.02
2023-02-13T21:48:25.813Z,74.27
2023-02-13T21:53:31.997Z,74.61
2023-02-13T21:58:35.086Z,74.83
2023-02-13T22:03:37.813Z,74.57
2023-02-13T22:08:42.027Z,74.72
2023-02-13T22:13:44.727Z,74.98
2023-02-13T22:18:48.835Z,75.11
2023-02-13T22:23:53.042Z,74.74
2023-02-13T22:28:59.659Z,74.31
2023-02-13T22:34:04.411Z,74.05
2023-02-13T22:39:10.828Z,73.65
2023-02-13T22:44:13.538Z,73.69
2023-02-13T22:49:16.213Z,74.26
2023-02-13T22:54:20.218Z,73.99
2023-02-13T22:59:22.943Z,74.18
2023-02-13T23:04:25.792Z,74.53
2023-02-13T23:09:29.994Z,74.22
2023-02-13T23:14:32.830Z,74.60
2023-02-13T23:19:35.667Z,74.94
2023-02-13T23:24:40.252Z,74.78
2023-02-13T23:29:43.057Z,73.89
2023-02-13T23:34:45.848Z,73.42
2023-02-13T23:39:50.080Z,73.41
2023-02-13T23:44:52.947Z,73.27
2023-02-13T23:49:55.688Z,73.21
2023-02-13T23:54:59.857Z,72.64
